createdAt,value
2018-07-11T00:00:09.031Z,13.57
2018-07-11T00:02:37.219Z,17.00
2018-07-11T00:05:05.444Z,12.60
2018-07-11T00:07:33.635Z,13.03
2018-07-11T00:10:01.861Z,13.07
2018-07-11T00:12:30.135Z,12.37
2018-07-11T00:14:58.347Z,12.57
2018-07-11T00:17:26.940Z,13.97
2018-07-11T00:19:55.172Z,13.87
2018-07-11T00:22:23.403Z,13.03
2018-07-11T00:24:51.619Z,14.10
2018-07-11T00:27:19.827Z,15.20
2018-07-11T00:29:48.120Z,13.60
2018-07-11T00:32:16.351Z,12.90
2018-07-11T00:34:44.566Z,12.93
2018-07-11T00:37:12.790Z,13.03
2018-07-11T00:39:41.070Z,13.07
2018-07-11T00:42:09.037Z,12.60
2018-07-11T00:44:37.334Z,13.20
2018-07-11T00:47:05.588Z,11.70
2018-07-11T00:49:33.832Z,15.53
2018-07-11T00:52:02.064Z,11.63
2018-07-11T00:54:30.275Z,12.53
2018-07-11T00:56:58.470Z,13.57
2018-07-11T00:59:28.219Z,11.37
2018-07-11T01:02:02.213Z,13.67
2018-07-11T01:04:30.407Z,12.83
2018-07-11T01:07:00.358Z,14.43
2018-07-11T01:09:29.270Z,13.03
2018-07-11T01:11:57.431Z,13.67
2018-07-11T01:14:25.814Z,12.30
2018-07-11T01:16:55.082Z,16.03
2018-07-11T01:19:24.510Z,13.10
2018-07-11T01:22:01.428Z,13.73
2018-07-11T01:24:30.800Z,13.13
2018-07-11T01:26:59.751Z,13.37
2018-07-11T01:29:28.217Z,11.90
2018-07-11T01:31:56.391Z,12.60
2018-07-11T01:34:24.590Z,12.23
2018-07-11T01:36:52.881Z,15.57
2018-07-11T01:39:21.058Z,16.60
2018-07-11T01:41:49.213Z,13.73
2018-07-11T01:44:17.377Z,11.73
2018-07-11T01:46:48.370Z,12.87
2018-07-11T01:49:16.879Z,12.83
2018-07-11T01:51:57.068Z,13.03
2018-07-11T01:54:25.849Z,14.03
2018-07-11T01:56:54.023Z,16.13
2018-07-11T01:59:23.459Z,14.83
2018-07-11T02:01:51.602Z,12.67
2018-07-11T02:04:19.782Z,13.40
2018-07-11T02:06:47.995Z,14.10
2018-07-11T02:09:16.506Z,13.70
2018-07-11T02:11:44.902Z,16.23
2018-07-11T02:14:13.106Z,12.63
2018-07-11T02:16:41.331Z,12.83
2018-07-11T02:19:09.756Z,13.73
2018-07-11T02:21:38.263Z,13.47
2018-07-11T02:24:06.468Z,12.73
2018-07-11T02:26:34.737Z,13.13
2018-07-11T02:29:02.979Z,14.13
2018-07-11T02:31:31.569Z,14.27
2018-07-11T02:33:59.498Z,13.03
2018-07-11T02:36:27.699Z,13.37
2018-07-11T02:38:55.900Z,13.53
2018-07-11T02:41:24.096Z,13.03
2018-07-11T02:43:52.395Z,13.53
2018-07-11T02:46:25.047Z,12.93
2018-07-11T02:48:53.255Z,18.10
2018-07-11T02:51:21.488Z,14.37
2018-07-11T02:53:49.679Z,13.97
2018-07-11T02:56:18.438Z,18.03
2018-07-11T02:58:46.915Z,13.80
2018-07-11T03:01:15.144Z,14.30
2018-07-11T03:03:43.468Z,12.60
2018-07-11T03:06:11.643Z,12.60
2018-07-11T03:08:39.810Z,14.97
2018-07-11T03:11:07.963Z,17.27
2018-07-11T03:13:36.134Z,13.73
2018-07-11T03:16:04.538Z,13.50
2018-07-11T03:18:32.710Z,14.67
2018-07-11T03:21:00.885Z,14.10
2018-07-11T03:23:29.663Z,13.90
2018-07-11T03:25:57.822Z,13.67
2018-07-11T03:28:25.991Z,16.70
2018-07-11T03:30:54.168Z,14.20
2018-07-11T03:33:22.396Z,13.77
2018-07-11T03:35:50.595Z,13.73
2018-07-11T03:38:18.780Z,14.30
2018-07-11T03:40:46.999Z,13.60
2018-07-11T03:43:15.287Z,13.57
2018-07-11T03:45:43.544Z,13.83
2018-07-11T03:48:11.711Z,12.70
2018-07-11T03:50:39.881Z,17.33
2018-07-11T03:53:08.075Z,16.60
2018-07-11T03:55:36.272Z,18.07
2018-07-11T03:58:04.431Z,14.70
2018-07-11T04:00:32.604Z,15.67
2018-07-11T04:03:00.763Z,15.00
2018-07-11T04:05:28.940Z,14.23
2018-07-11T04:07:57.112Z,14.03
2018-07-11T04:10:25.324Z,14.60
2018-07-11T04:12:57.088Z,15.23
2018-07-11T04:15:25.275Z,14.23
2018-07-11T04:17:53.751Z,12.97
2018-07-11T04:20:21.919Z,12.63
2018-07-11T04:22:50.099Z,14.80
2018-07-11T04:25:18.362Z,12.53
2018-07-11T04:27:46.533Z,12.03
2018-07-11T04:30:15.218Z,12.00
2018-07-11T04:32:43.399Z,14.73
2018-07-11T04:35:11.839Z,10.93
2018-07-11T04:37:40.007Z,10.00
2018-07-11T04:40:08.193Z,10.93
2018-07-11T04:42:36.446Z,9.83
2018-07-11T04:45:04.575Z,11.77
2018-07-11T04:47:32.755Z,8.30
2018-07-11T04:50:00.910Z,8.53
2018-07-11T04:52:29.081Z,8.70
2018-07-11T04:54:56.998Z,8.27
2018-07-11T04:57:25.166Z,9.27
2018-07-11T04:59:53.318Z,8.03
2018-07-11T05:02:21.479Z,8.40
2018-07-11T05:04:49.663Z,7.30
2018-07-11T05:07:17.808Z,6.03
2018-07-11T05:09:45.963Z,6.40
2018-07-11T05:12:14.128Z,7.20
2018-07-11T05:14:42.291Z,6.50
2018-07-11T05:17:10.458Z,6.83
2018-07-11T05:19:38.614Z,6.50
2018-07-11T05:22:06.819Z,7.47
2018-07-11T05:24:34.979Z,5.80
2018-07-11T05:27:03.146Z,5.20
2018-07-11T05:29:31.309Z,4.90
2018-07-11T05:31:59.483Z,7.07
2018-07-11T05:34:27.630Z,4.60
2018-07-11T05:36:55.778Z,4.60
2018-07-11T05:39:23.951Z,5.60
2018-07-11T05:41:52.115Z,4.03
2018-07-11T05:44:20.275Z,3.60
2018-07-11T05:46:48.431Z,4.63
2018-07-11T05:49:16.591Z,4.20
2018-07-11T05:51:44.747Z,4.37
2018-07-11T05:54:13.011Z,3.70
2018-07-11T05:56:41.204Z,3.87
2018-07-11T05:59:10.127Z,4.40
2018-07-11T06:01:38.328Z,2.30
2018-07-11T06:04:06.712Z,3.97
2018-07-11T06:06:34.950Z,4.00
2018-07-11T06:09:03.235Z,3.37
2018-07-11T06:11:31.419Z,3.10
2018-07-11T06:13:59.628Z,3.20
2018-07-11T06:16:28.142Z,3.17
2018-07-11T06:18:56.250Z,3.30
2018-07-11T06:21:25.284Z,3.37
2018-07-11T06:23:53.471Z,3.33
2018-07-11T06:26:21.877Z,3.10
2018-07-11T06:28:50.079Z,4.10
2018-07-11T06:31:18.037Z,4.13
2018-07-11T06:33:46.384Z,5.27
2018-07-11T06:36:14.814Z,4.10
2018-07-11T06:38:42.995Z,3.50
2018-07-11T06:41:11.204Z,3.20
2018-07-11T06:43:39.446Z,3.50
2018-07-11T06:46:07.648Z,3.50
2018-07-11T06:48:36.098Z,3.07
2018-07-11T06:51:04.293Z,3.63
2018-07-11T06:53:32.729Z,3.40
2018-07-11T06:56:00.992Z,4.37
2018-07-11T06:58:29.103Z,5.10
2018-07-11T07:00:57.316Z,3.63
2018-07-11T07:03:25.509Z,3.33
2018-07-11T07:05:53.831Z,3.53
2018-07-11T07:08:22.007Z,5.47
2018-07-11T07:10:50.254Z,3.90
2018-07-11T07:13:18.430Z,4.37
2018-07-11T07:15:46.629Z,4.33
2018-07-11T07:18:14.854Z,4.20
2018-07-11T07:20:43.054Z,3.60
2018-07-11T07:23:11.268Z,3.93
2018-07-11T07:25:39.447Z,5.47
2018-07-11T07:28:07.650Z,5.23
2018-07-11T07:30:35.835Z,3.77
2018-07-11T07:33:04.037Z,4.83
2018-07-11T07:35:32.250Z,3.80
2018-07-11T07:38:00.447Z,4.77
2018-07-11T07:40:28.626Z,4.27
2018-07-11T07:42:56.835Z,4.60
2018-07-11T07:45:25.015Z,5.07
2018-07-11T07:47:53.470Z,4.63
2018-07-11T07:50:21.663Z,3.70
2018-07-11T07:52:49.922Z,3.40
2018-07-11T07:55:18.074Z,3.20
2018-07-11T07:57:46.326Z,4.00
2018-07-11T08:00:14.787Z,3.67
2018-07-11T08:02:42.984Z,4.07
2018-07-11T08:05:11.174Z,2.63
2018-07-11T08:07:39.850Z,3.57
2018-07-11T08:10:09.142Z,3.70
2018-07-11T08:12:37.578Z,3.37
2018-07-11T08:15:06.403Z,3.10
2018-07-11T08:17:34.608Z,2.80
2018-07-11T08:20:02.993Z,3.93
2018-07-11T08:23:10.801Z,2.37
2018-07-11T08:25:50.180Z,3.67
2018-07-11T08:28:37.055Z,2.53
2018-07-11T08:31:49.456Z,3.57
2018-07-11T08:34:30.827Z,3.63
2018-07-11T08:38:13.823Z,3.07
2018-07-11T08:41:59.027Z,2.27
2018-07-11T08:45:51.465Z,2.30
2018-07-11T08:48:26.713Z,3.40
2018-07-11T08:51:15.031Z,2.20
2018-07-11T08:53:54.539Z,2.40
2018-07-11T08:56:54.087Z,2.03
2018-07-11T08:59:37.922Z,1.93
2018-07-11T09:02:24.026Z,2.60
2018-07-11T09:07:08.785Z,2.17
2018-07-11T09:09:43.585Z,2.70
2018-07-11T09:13:27.214Z,2.33
2018-07-11T09:18:16.011Z,2.40
2018-07-11T09:20:59.679Z,2.67
2018-07-11T09:23:36.263Z,2.60
2018-07-11T09:26:04.421Z,2.17
2018-07-11T09:28:32.583Z,2.23
2018-07-11T09:31:00.752Z,1.80
2018-07-11T09:33:28.894Z,1.90
2018-07-11T09:35:57.058Z,2.23
2018-07-11T09:38:25.219Z,2.37
2018-07-11T09:40:53.683Z,2.37
2018-07-11T09:43:21.895Z,2.10
2018-07-11T09:45:50.083Z,1.97
2018-07-11T09:48:18.518Z,1.67
2018-07-11T09:50:47.598Z,1.50
2018-07-11T09:53:15.794Z,2.17
2018-07-11T09:55:43.975Z,2.00
2018-07-11T09:58:12.168Z,1.90
2018-07-11T10:00:45.852Z,2.10
2018-07-11T10:03:14.022Z,2.20
2018-07-11T10:05:42.240Z,2.83
2018-07-11T10:08:11.017Z,2.70
2018-07-11T10:10:39.198Z,3.33
2018-07-11T10:13:07.386Z,2.30
2018-07-11T10:15:35.558Z,2.53
2018-07-11T10:18:04.050Z,2.80
2018-07-11T10:20:32.238Z,2.73
2018-07-11T10:23:00.443Z,2.30
2018-07-11T10:25:28.629Z,2.60
2018-07-11T10:28:02.210Z,2.47
2018-07-11T10:30:30.387Z,2.40
2018-07-11T10:32:58.579Z,2.43
2018-07-11T10:35:26.792Z,2.90
2018-07-11T10:37:55.035Z,2.47
2018-07-11T10:40:23.235Z,2.00
2018-07-11T10:42:51.435Z,2.40
2018-07-11T10:45:19.650Z,2.80
2018-07-11T10:47:47.858Z,2.20
2018-07-11T10:50:16.039Z,3.37
2018-07-11T10:52:44.242Z,3.63
2018-07-11T10:55:12.435Z,3.90
2018-07-11T10:57:41.269Z,4.37
2018-07-11T11:00:09.371Z,4.60
2018-07-11T11:02:37.589Z,3.97
2018-07-11T11:05:06.090Z,5.33
2018-07-11T11:07:34.290Z,7.57
2018-07-11T11:10:02.735Z,6.07
2018-07-11T11:12:30.935Z,6.57
2018-07-11T11:14:59.180Z,6.87
2018-07-11T11:17:27.397Z,6.30
2018-07-11T11:19:55.600Z,6.73
2018-07-11T11:22:23.770Z,7.10
2018-07-11T11:24:51.955Z,6.70
2018-07-11T11:27:20.156Z,5.87
2018-07-11T11:29:48.674Z,6.40
2018-07-11T11:32:17.183Z,5.23
2018-07-11T11:34:45.379Z,5.93
2018-07-11T11:37:13.550Z,5.60
2018-07-11T11:39:41.774Z,6.07
2018-07-11T11:42:10.911Z,5.13
2018-07-11T11:44:39.297Z,5.47
2018-07-11T11:47:07.474Z,5.27
2018-07-11T11:49:35.717Z,5.60
2018-07-11T11:52:03.953Z,5.93
2018-07-11T11:54:32.156Z,5.10
2018-07-11T11:57:00.350Z,5.57
2018-07-11T11:59:28.526Z,7.27
2018-07-11T12:01:57.131Z,5.47
2018-07-11T12:04:25.390Z,6.50
2018-07-11T12:06:53.884Z,5.90
2018-07-11T12:09:22.034Z,6.07
2018-07-11T12:11:50.199Z,5.50
2018-07-11T12:14:18.474Z,4.77
2018-07-11T12:16:46.749Z,4.50
2018-07-11T12:19:14.903Z,5.53
2018-07-11T12:21:43.066Z,5.57
2018-07-11T12:24:11.226Z,5.47
2018-07-11T12:26:40.259Z,5.47
2018-07-11T12:29:08.455Z,6.40
2018-07-11T12:31:36.652Z,4.60
2018-07-11T12:34:04.811Z,5.73
2018-07-11T12:36:32.984Z,4.87
2018-07-11T12:39:01.140Z,5.10
2018-07-11T12:41:29.302Z,6.17
2018-07-11T12:43:57.467Z,5.30
2018-07-11T12:46:25.641Z,5.93
2018-07-11T12:48:59.278Z,5.87
2018-07-11T12:51:27.467Z,6.70
2018-07-11T12:53:55.619Z,6.30
2018-07-11T12:56:24.188Z,5.13
2018-07-11T12:58:52.662Z,5.53
2018-07-11T13:01:20.810Z,5.30
2018-07-11T13:03:49.325Z,5.10
2018-07-11T13:06:17.532Z,5.70
2018-07-11T13:08:45.777Z,4.60
2018-07-11T13:11:13.951Z,5.83
2018-07-11T13:13:42.143Z,4.37
2018-07-11T13:16:10.483Z,4.03
2018-07-11T13:18:38.883Z,4.13
2018-07-11T13:21:07.165Z,4.87
2018-07-11T13:23:35.339Z,4.63
2018-07-11T13:26:03.543Z,4.17
2018-07-11T13:28:31.710Z,3.67
2018-07-11T13:30:59.875Z,3.70
2018-07-11T13:33:28.034Z,3.50
2018-07-11T13:35:56.487Z,5.03
2018-07-11T13:38:24.651Z,4.43
2018-07-11T13:40:52.806Z,4.07
2018-07-11T13:43:20.979Z,4.03
2018-07-11T13:45:49.134Z,3.90
2018-07-11T13:48:17.286Z,3.63
2018-07-11T13:50:45.446Z,4.70
2018-07-11T13:53:13.635Z,4.13
2018-07-11T13:55:41.836Z,2.80
2018-07-11T13:58:10.007Z,3.70
2018-07-11T14:00:38.185Z,2.97
2018-07-11T14:03:06.335Z,3.00
2018-07-11T14:05:34.547Z,2.87
2018-07-11T14:08:02.478Z,3.17
2018-07-11T14:10:30.696Z,3.00
2018-07-11T14:12:58.887Z,3.17
2018-07-11T14:15:27.086Z,3.67
2018-07-11T14:17:55.262Z,3.23
2018-07-11T14:20:23.526Z,3.30
2018-07-11T14:22:51.695Z,3.50
2018-07-11T14:25:21.327Z,3.73
2018-07-11T14:27:51.876Z,4.77
2018-07-11T14:30:24.386Z,4.07
2018-07-11T14:32:55.791Z,4.83
2018-07-11T14:35:24.079Z,6.70
2018-07-11T14:37:52.526Z,6.43
2018-07-11T14:40:21.618Z,6.10
2018-07-11T14:42:49.818Z,5.60
2018-07-11T14:45:18.011Z,5.47
2018-07-11T14:47:51.571Z,5.73
2018-07-11T14:50:19.861Z,5.37
2018-07-11T14:52:48.155Z,7.07
2018-07-11T14:55:16.386Z,6.57
2018-07-11T14:57:44.595Z,6.47
2018-07-11T15:00:12.774Z,5.93
2018-07-11T15:02:40.998Z,6.27
2018-07-11T15:05:09.149Z,6.47
2018-07-11T15:07:37.363Z,6.07
2018-07-11T15:10:05.562Z,5.50
2018-07-11T15:12:33.662Z,6.57
2018-07-11T15:15:01.818Z,6.63
2018-07-11T15:17:30.395Z,6.10
2018-07-11T15:19:58.883Z,7.03
2018-07-11T15:22:27.250Z,5.83
2018-07-11T15:24:55.699Z,6.67
2018-07-11T15:27:24.237Z,6.30
2018-07-11T15:29:52.427Z,6.57
2018-07-11T15:32:20.938Z,6.00
2018-07-11T15:34:49.103Z,6.03
2018-07-11T15:37:17.283Z,8.67
2018-07-11T15:39:45.442Z,5.70
2018-07-11T15:42:13.599Z,5.00
2018-07-11T15:44:42.084Z,4.63
2018-07-11T15:47:10.767Z,4.33
2018-07-11T15:49:38.918Z,4.30
2018-07-11T15:52:07.098Z,4.80
2018-07-11T15:54:35.815Z,5.30
2018-07-11T15:57:05.147Z,4.57
2018-07-11T15:59:34.449Z,4.03
2018-07-11T16:02:02.575Z,3.33
2018-07-11T16:04:36.236Z,4.40
2018-07-11T16:07:06.668Z,4.77
2018-07-11T16:09:42.250Z,4.97
2018-07-11T16:12:10.658Z,4.30
2018-07-11T16:14:38.846Z,5.13
2018-07-11T16:17:07.032Z,5.57
2018-07-11T16:19:35.237Z,4.97
2018-07-11T16:22:03.409Z,5.00
2018-07-11T16:24:31.704Z,4.50
2018-07-11T16:26:59.903Z,5.27
2018-07-11T16:29:28.113Z,5.73
2018-07-11T16:31:56.301Z,7.80
2018-07-11T16:34:24.507Z,6.13
2018-07-11T16:36:52.911Z,4.80
2018-07-11T16:39:21.175Z,4.37
2018-07-11T16:41:49.400Z,4.97
2018-07-11T16:44:17.594Z,5.30
2018-07-11T16:46:45.923Z,4.50
2018-07-11T16:49:14.118Z,4.80
2018-07-11T16:51:42.319Z,3.80
2018-07-11T16:54:11.011Z,5.20
2018-07-11T16:56:39.410Z,5.40
2018-07-11T16:59:09.985Z,5.70
2018-07-11T17:01:48.754Z,5.77
2018-07-11T17:04:16.951Z,5.47
2018-07-11T17:06:45.146Z,5.53
2018-07-11T17:09:13.359Z,4.70
2018-07-11T17:11:41.748Z,5.00
2018-07-11T17:14:10.476Z,4.83
2018-07-11T17:16:51.214Z,5.10
2018-07-11T17:19:39.429Z,4.33
2018-07-11T17:22:08.642Z,4.93
2018-07-11T17:24:43.217Z,3.87
2018-07-11T17:27:12.035Z,4.00
2018-07-11T17:29:41.022Z,4.93
2018-07-11T17:32:10.458Z,4.03
2018-07-11T17:34:40.589Z,4.40
2018-07-11T17:37:10.161Z,3.73
2018-07-11T17:40:04.359Z,3.90
2018-07-11T17:42:32.294Z,3.73
2018-07-11T17:45:11.052Z,4.50
2018-07-11T17:48:46.123Z,3.07
2018-07-11T17:51:32.919Z,3.60
2018-07-11T17:54:02.603Z,3.33
2018-07-11T17:56:42.782Z,3.37
2018-07-11T17:59:13.438Z,2.97
2018-07-11T18:01:42.825Z,3.53
2018-07-11T18:05:01.134Z,3.90
2018-07-11T18:07:37.536Z,2.67
2018-07-11T18:10:06.915Z,3.07
2018-07-11T18:12:57.817Z,4.03
2018-07-11T18:15:32.145Z,2.53
2018-07-11T18:18:15.979Z,3.20
2018-07-11T18:20:51.283Z,2.87
2018-07-11T18:23:34.454Z,3.03
2018-07-11T18:26:11.376Z,2.77
2018-07-11T18:28:47.835Z,3.03
2018-07-11T18:35:36.052Z,2.67
2018-07-11T18:38:24.447Z,2.47
2018-07-11T18:41:00.791Z,2.40
2018-07-11T18:44:09.443Z,2.57
2018-07-11T18:47:47.462Z,2.37
2018-07-11T18:50:27.530Z,2.67
2018-07-11T18:53:01.198Z,2.53
2018-07-11T18:55:39.298Z,2.43
2018-07-11T18:58:14.794Z,2.40
2018-07-11T19:00:47.470Z,2.73
2018-07-11T19:03:29.481Z,3.00
2018-07-11T19:08:09.041Z,3.33
2018-07-11T19:10:49.919Z,2.87
2018-07-11T19:13:30.291Z,2.77
2018-07-11T19:17:10.600Z,2.13
2018-07-11T19:19:43.914Z,2.40
2018-07-11T19:22:18.321Z,2.60
2018-07-11T19:25:46.611Z,2.80
2018-07-11T19:28:22.302Z,2.10
2018-07-11T19:30:56.237Z,2.60
2018-07-11T19:33:34.029Z,3.20
2018-07-11T19:36:14.331Z,3.10
2018-07-11T19:38:55.417Z,3.07
2018-07-11T19:41:34.987Z,2.80
2018-07-11T19:44:13.746Z,3.20
2018-07-11T19:47:04.551Z,2.93
2018-07-11T19:51:46.055Z,2.90
2018-07-11T19:54:28.436Z,2.90
2018-07-11T19:56:59.215Z,3.03
2018-07-11T19:59:27.434Z,3.03
2018-07-11T20:01:55.640Z,3.00
2018-07-11T20:04:24.075Z,3.80
2018-07-11T20:06:52.278Z,2.47
2018-07-11T20:09:20.503Z,3.40
2018-07-11T20:11:48.711Z,3.00
2018-07-11T20:14:16.915Z,3.40
2018-07-11T20:16:45.205Z,3.97
2018-07-11T20:19:13.310Z,3.70
2018-07-11T20:21:41.499Z,4.70
2018-07-11T20:24:09.723Z,3.90
2018-07-11T20:26:38.195Z,3.73
2018-07-11T20:29:06.398Z,5.00
2018-07-11T20:31:34.586Z,4.07
2018-07-11T20:34:02.761Z,4.43
2018-07-11T20:36:31.299Z,5.63
2018-07-11T20:38:59.523Z,4.20
2018-07-11T20:41:27.770Z,5.73
2018-07-11T20:43:55.955Z,4.20
2018-07-11T20:46:24.208Z,4.17
2018-07-11T20:48:52.359Z,4.93
2018-07-11T20:51:20.551Z,4.40
2018-07-11T20:53:49.174Z,3.73
2018-07-11T20:56:17.390Z,5.63
2018-07-11T20:58:56.754Z,3.47
2018-07-11T21:01:36.472Z,3.97
2018-07-11T21:04:17.680Z,5.13
2018-07-11T21:06:56.885Z,4.80
2018-07-11T21:09:36.242Z,5.97
2018-07-11T21:16:29.311Z,3.77
2018-07-11T21:19:04.470Z,5.20
2018-07-11T21:21:33.713Z,4.07
2018-07-11T21:24:02.205Z,5.37
2018-07-11T21:26:30.367Z,3.53
2018-07-11T21:28:58.543Z,4.47
2018-07-11T21:31:26.723Z,4.20
2018-07-11T21:33:54.881Z,4.60
2018-07-11T21:36:23.105Z,3.77
2018-07-11T21:38:51.885Z,5.40
2018-07-11T21:41:20.081Z,4.27
2018-07-11T21:43:48.367Z,5.50
2018-07-11T21:46:16.507Z,4.67
2018-07-11T21:48:44.958Z,5.33
2018-07-11T21:51:13.337Z,4.43
2018-07-11T21:53:41.519Z,4.50
2018-07-11T21:56:09.673Z,4.60
2018-07-11T21:58:37.986Z,4.53
2018-07-11T22:01:07.347Z,4.93
2018-07-11T22:03:35.634Z,4.57
2018-07-11T22:06:03.835Z,5.20
2018-07-11T22:08:32.008Z,4.60
2018-07-11T22:11:00.359Z,5.37
2018-07-11T22:13:28.586Z,5.10
2018-07-11T22:15:56.839Z,6.53
2018-07-11T22:18:31.939Z,4.63
2018-07-11T22:20:59.809Z,5.30
2018-07-11T22:23:27.464Z,5.00
2018-07-11T22:25:54.587Z,5.10
2018-07-11T22:28:22.203Z,4.93
2018-07-11T22:30:49.526Z,5.57
2018-07-11T22:33:16.871Z,4.53
2018-07-11T22:35:44.357Z,6.77
2018-07-11T22:38:11.882Z,6.43
2018-07-11T22:40:39.315Z,4.90
2018-07-11T22:43:07.043Z,5.33
2018-07-11T22:45:34.496Z,4.40
2018-07-11T22:48:01.682Z,6.00
2018-07-11T22:50:29.096Z,4.73
2018-07-11T22:52:56.314Z,5.90
2018-07-11T22:55:23.507Z,4.60
2018-07-11T22:57:50.826Z,6.47
2018-07-11T23:00:18.167Z,4.57
2018-07-11T23:02:45.530Z,5.80
2018-07-11T23:05:12.719Z,5.13
2018-07-11T23:07:39.914Z,6.60
2018-07-11T23:10:07.090Z,5.43
2018-07-11T23:12:34.291Z,5.93
2018-07-11T23:15:01.794Z,4.90
2018-07-11T23:17:28.986Z,6.13
2018-07-11T23:19:56.175Z,6.27
2018-07-11T23:22:23.385Z,5.10
2018-07-11T23:24:50.561Z,5.37
2018-07-11T23:27:17.776Z,6.77
2018-07-11T23:29:44.978Z,5.70
2018-07-11T23:32:12.201Z,4.80
2018-07-11T23:34:39.391Z,6.20
2018-07-11T23:37:06.597Z,5.00
2018-07-11T23:39:33.782Z,6.10
2018-07-11T23:42:00.974Z,5.67
2018-07-11T23:44:28.163Z,6.50
2018-07-11T23:46:55.354Z,6.60
2018-07-11T23:49:22.551Z,6.87
2018-07-11T23:51:49.970Z,5.80
2018-07-11T23:54:17.162Z,6.03
2018-07-11T23:56:44.346Z,5.93
2018-07-11T23:59:11.538Z,5.10
